createdAt,value
2017-09-30T00:01:20.720Z,91.70
2017-09-30T00:03:48.996Z,91.60
2017-09-30T00:06:17.292Z,91.70
2017-09-30T00:08:45.578Z,92.00
2017-09-30T00:11:13.897Z,91.60
2017-09-30T00:13:42.939Z,91.60
2017-09-30T00:16:11.169Z,91.60
2017-09-30T00:18:39.437Z,91.60
2017-09-30T00:21:07.681Z,91.60
2017-09-30T00:23:35.929Z,91.60
2017-09-30T00:26:04.204Z,91.60
2017-09-30T00:28:32.444Z,91.60
2017-09-30T00:31:00.681Z,91.60
2017-09-30T00:33:29.721Z,91.60
2017-09-30T00:35:57.961Z,91.60
2017-09-30T00:38:26.210Z,91.30
2017-09-30T00:40:54.497Z,91.10
2017-09-30T00:43:22.737Z,91.10
2017-09-30T00:45:50.977Z,91.10
2017-09-30T00:48:20.009Z,91.20
2017-09-30T00:50:48.253Z,91.20
2017-09-30T00:53:16.499Z,90.90
2017-09-30T00:55:44.775Z,91.00
2017-09-30T00:58:13.022Z,91.10
2017-09-30T01:00:41.261Z,91.30
2017-09-30T01:03:09.545Z,91.60
2017-09-30T01:05:37.785Z,91.60
2017-09-30T01:08:06.030Z,91.60
2017-09-30T01:10:35.069Z,91.60
2017-09-30T01:13:03.316Z,91.60
2017-09-30T01:15:31.553Z,91.60
2017-09-30T01:17:59.846Z,91.60
2017-09-30T01:20:28.085Z,91.60
2017-09-30T01:22:56.333Z,91.60
2017-09-30T01:25:24.733Z,91.60
2017-09-30T01:27:52.974Z,91.60
2017-09-30T01:30:21.222Z,91.60
2017-09-30T01:32:49.497Z,91.60
2017-09-30T01:35:17.737Z,91.60
2017-09-30T01:37:45.986Z,91.60
2017-09-30T01:40:15.030Z,91.10
2017-09-30T01:42:43.278Z,91.10
2017-09-30T01:45:11.530Z,91.10
2017-09-30T01:47:39.797Z,91.10
2017-09-30T01:50:08.041Z,91.40
2017-09-30T01:52:36.280Z,91.00
2017-09-30T01:55:04.545Z,91.20
2017-09-30T01:57:32.788Z,91.20
2017-09-30T02:00:01.805Z,91.50
2017-09-30T02:02:30.085Z,91.50
2017-09-30T02:04:58.329Z,91.50
2017-09-30T02:07:26.578Z,91.50
2017-09-30T02:09:54.869Z,91.50
2017-09-30T02:12:23.113Z,91.50
2017-09-30T02:14:51.361Z,91.50
2017-09-30T02:17:19.738Z,91.50
2017-09-30T02:19:47.977Z,91.50
2017-09-30T02:22:16.225Z,91.50
2017-09-30T02:24:44.518Z,91.50
2017-09-30T02:27:12.757Z,91.50
2017-09-30T02:29:41.004Z,91.50
2017-09-30T02:32:09.286Z,91.50
2017-09-30T02:34:37.529Z,91.40
2017-09-30T02:37:05.781Z,91.40
2017-09-30T02:39:34.828Z,91.40
2017-09-30T02:42:03.073Z,91.40
2017-09-30T02:44:31.318Z,91.40
2017-09-30T02:46:59.705Z,91.50
2017-09-30T02:49:27.950Z,91.50
2017-09-30T02:51:56.191Z,91.50
2017-09-30T02:54:24.466Z,91.50
2017-09-30T02:56:52.713Z,91.50
2017-09-30T02:59:20.957Z,91.50
2017-09-30T03:01:49.229Z,91.40
2017-09-30T03:04:17.477Z,91.50
2017-09-30T03:06:45.717Z,91.50
2017-09-30T03:09:14.766Z,91.50
2017-09-30T03:11:43.005Z,91.50
2017-09-30T03:14:11.250Z,91.50
2017-09-30T03:16:39.518Z,91.50
2017-09-30T03:19:07.757Z,91.50
2017-09-30T03:21:35.996Z,91.50
2017-09-30T03:24:04.294Z,91.50
2017-09-30T03:26:32.537Z,91.40
2017-09-30T03:29:01.545Z,91.60
2017-09-30T03:31:29.934Z,91.60
2017-09-30T03:33:58.172Z,91.70
2017-09-30T03:36:26.413Z,91.70
2017-09-30T03:38:54.809Z,91.60
2017-09-30T03:41:23.061Z,91.40
2017-09-30T03:43:51.301Z,91.40
2017-09-30T03:46:19.569Z,91.40
2017-09-30T03:48:47.817Z,91.30
2017-09-30T03:51:16.065Z,91.30
2017-09-30T03:53:45.117Z,91.30
2017-09-30T03:56:13.361Z,91.30
2017-09-30T03:58:41.601Z,91.30
2017-09-30T04:01:09.881Z,91.30
2017-09-30T04:03:38.125Z,91.30
2017-09-30T04:06:06.368Z,91.30
2017-09-30T04:08:34.653Z,91.30
2017-09-30T04:11:02.898Z,91.30
2017-09-30T04:13:31.148Z,91.30
2017-09-30T04:15:59.433Z,91.30
2017-09-30T04:18:27.677Z,91.30
2017-09-30T04:20:55.926Z,91.40
2017-09-30T04:23:24.324Z,91.40
2017-09-30T04:25:52.568Z,91.50
2017-09-30T04:28:20.809Z,91.30
2017-09-30T04:30:49.081Z,91.40
2017-09-30T04:33:17.321Z,91.40
2017-09-30T04:35:45.597Z,91.30
2017-09-30T04:38:13.877Z,91.30
2017-09-30T04:40:42.113Z,91.20
2017-09-30T04:43:10.357Z,91.10
2017-09-30T04:45:39.385Z,90.90
2017-09-30T04:48:07.632Z,90.80
2017-09-30T04:50:35.869Z,90.80
2017-09-30T04:53:04.149Z,90.80
2017-09-30T04:55:32.398Z,90.90
2017-09-30T04:58:00.638Z,90.90
2017-09-30T05:00:29.685Z,90.50
2017-09-30T05:02:57.921Z,90.50
2017-09-30T05:05:26.179Z,90.80
2017-09-30T05:07:54.561Z,90.90
2017-09-30T05:10:22.797Z,91.00
2017-09-30T05:12:51.045Z,90.90
2017-09-30T05:15:19.329Z,90.70
2017-09-30T05:17:47.581Z,90.70
2017-09-30T05:20:15.824Z,90.70
2017-09-30T05:22:44.093Z,90.70
2017-09-30T05:25:12.345Z,90.80
2017-09-30T05:27:40.591Z,91.00
2017-09-30T05:30:09.621Z,91.00
2017-09-30T05:32:37.870Z,91.00
2017-09-30T05:35:06.117Z,91.00
2017-09-30T05:37:34.381Z,91.00
2017-09-30T05:40:02.630Z,91.00
2017-09-30T05:42:30.871Z,91.00
2017-09-30T05:44:59.917Z,90.90
2017-09-30T05:47:28.161Z,90.90
2017-09-30T05:49:56.396Z,90.40
2017-09-30T05:52:24.897Z,90.30
2017-09-30T05:54:53.138Z,90.40
2017-09-30T05:57:21.372Z,90.50
2017-09-30T05:59:49.660Z,90.60
2017-09-30T06:02:17.897Z,90.80
2017-09-30T06:04:46.145Z,90.80
2017-09-30T06:07:15.192Z,91.00
2017-09-30T06:09:43.433Z,90.70
2017-09-30T06:12:11.678Z,90.80
2017-09-30T06:14:39.941Z,90.70
2017-09-30T06:17:08.186Z,90.70
2017-09-30T06:19:36.434Z,90.40
2017-09-30T06:22:04.845Z,90.20
2017-09-30T06:24:33.140Z,90.20
2017-09-30T06:27:02.149Z,90.20
2017-09-30T06:29:30.429Z,90.10
2017-09-30T06:31:58.669Z,90.30
2017-09-30T06:34:26.909Z,89.90
2017-09-30T06:36:55.950Z,88.70
2017-09-30T06:39:24.185Z,88.60
2017-09-30T06:41:52.425Z,88.70
2017-09-30T06:44:20.829Z,88.40
2017-09-30T06:46:49.082Z,87.70
2017-09-30T06:49:17.330Z,86.70
2017-09-30T06:51:45.717Z,86.10
2017-09-30T06:54:13.960Z,86.20
2017-09-30T06:56:42.209Z,85.30
2017-09-30T06:59:10.494Z,85.40
2017-09-30T07:01:38.741Z,82.30
2017-09-30T07:04:06.989Z,82.10
2017-09-30T07:06:35.281Z,82.80
2017-09-30T07:09:03.528Z,83.50
2017-09-30T07:11:31.774Z,82.00
2017-09-30T07:14:00.164Z,82.10
2017-09-30T07:16:28.417Z,83.20
2017-09-30T07:18:56.681Z,78.50
2017-09-30T07:21:24.968Z,77.80
2017-09-30T07:23:53.213Z,76.40
2017-09-30T07:26:21.519Z,78.10
2017-09-30T07:28:49.806Z,75.50
2017-09-30T07:31:18.059Z,77.30
2017-09-30T07:33:46.305Z,74.30
2017-09-30T07:36:14.822Z,75.70
2017-09-30T07:38:43.064Z,73.70
2017-09-30T07:41:11.305Z,73.00
2017-09-30T07:43:39.590Z,72.60
2017-09-30T07:46:07.833Z,70.40
2017-09-30T07:48:36.077Z,72.80
2017-09-30T07:51:04.356Z,73.10
2017-09-30T07:53:32.598Z,73.40
2017-09-30T07:56:00.846Z,69.40
2017-09-30T07:58:29.904Z,71.40
2017-09-30T08:00:58.157Z,71.40
2017-09-30T08:03:26.393Z,68.40
2017-09-30T08:05:54.665Z,67.80
2017-09-30T08:08:22.913Z,70.70
2017-09-30T08:10:51.157Z,69.70
2017-09-30T08:13:19.545Z,69.70
2017-09-30T08:15:47.789Z,68.00
2017-09-30T08:18:16.033Z,68.70
2017-09-30T08:20:44.301Z,69.80
2017-09-30T08:23:12.545Z,65.70
2017-09-30T08:25:40.789Z,64.90
2017-09-30T08:28:09.834Z,66.20
2017-09-30T08:30:38.082Z,66.20
2017-09-30T08:33:06.321Z,65.50
2017-09-30T08:35:34.602Z,64.60
2017-09-30T08:38:02.841Z,63.20
2017-09-30T08:40:31.081Z,64.20
2017-09-30T08:42:59.498Z,64.40
2017-09-30T08:45:27.737Z,63.70
2017-09-30T08:47:55.976Z,61.40
2017-09-30T08:50:24.351Z,60.20
2017-09-30T08:52:52.585Z,58.50
2017-09-30T08:55:21.609Z,59.50
2017-09-30T08:57:49.886Z,59.40
2017-09-30T09:00:18.129Z,59.00
2017-09-30T09:02:46.365Z,57.70
2017-09-30T09:05:14.640Z,59.30
2017-09-30T09:07:42.886Z,59.30
2017-09-30T09:10:11.130Z,58.80
2017-09-30T09:12:40.156Z,59.40
2017-09-30T09:15:08.392Z,59.30
2017-09-30T09:17:36.633Z,56.80
2017-09-30T09:20:05.882Z,56.60
2017-09-30T09:22:34.124Z,56.50
2017-09-30T09:25:02.372Z,56.30
2017-09-30T09:27:30.706Z,57.20
2017-09-30T09:29:59.705Z,55.50
2017-09-30T09:32:27.945Z,55.50
2017-09-30T09:34:56.322Z,57.30
2017-09-30T09:37:24.555Z,56.00
2017-09-30T09:39:53.556Z,55.50
2017-09-30T09:42:21.833Z,55.50
2017-09-30T09:44:50.069Z,54.40
2017-09-30T09:47:18.305Z,55.40
2017-09-30T09:49:47.462Z,56.90
2017-09-30T09:52:15.693Z,56.50
2017-09-30T09:54:43.929Z,55.40
2017-09-30T09:57:12.213Z,54.50
2017-09-30T09:59:40.460Z,54.30
2017-09-30T10:02:08.697Z,53.70
2017-09-30T10:04:37.725Z,52.40
2017-09-30T10:07:06.046Z,51.80
2017-09-30T10:09:34.261Z,53.70
2017-09-30T10:12:02.549Z,53.70
2017-09-30T10:14:30.784Z,53.00
2017-09-30T10:16:59.025Z,51.10
2017-09-30T10:19:27.293Z,52.60
2017-09-30T10:21:55.537Z,51.80
2017-09-30T10:24:23.782Z,51.20
2017-09-30T10:26:52.062Z,49.90
2017-09-30T10:29:20.306Z,50.80
2017-09-30T10:31:48.537Z,53.80
2017-09-30T10:34:17.573Z,50.10
2017-09-30T10:36:45.814Z,50.00
2017-09-30T10:39:14.053Z,51.00
2017-09-30T10:41:42.318Z,50.60
2017-09-30T10:44:10.673Z,50.40
2017-09-30T10:46:39.673Z,52.40
2017-09-30T10:49:08.087Z,52.40
2017-09-30T10:51:37.114Z,50.80
2017-09-30T10:54:05.367Z,50.80
2017-09-30T10:56:34.385Z,51.10
2017-09-30T10:59:02.626Z,51.00
2017-09-30T11:01:30.865Z,49.90
2017-09-30T11:03:59.141Z,51.00
2017-09-30T11:06:27.380Z,52.70
2017-09-30T11:08:55.624Z,51.50
2017-09-30T11:11:24.666Z,50.10
2017-09-30T11:13:52.906Z,50.10
2017-09-30T11:16:21.153Z,51.80
2017-09-30T11:18:49.427Z,51.80
2017-09-30T11:21:17.665Z,51.80
2017-09-30T11:23:45.907Z,51.40
2017-09-30T11:26:14.933Z,50.90
2017-09-30T11:28:43.169Z,50.80
2017-09-30T11:31:11.405Z,49.90
2017-09-30T11:33:40.449Z,51.90
2017-09-30T11:36:08.689Z,51.90
2017-09-30T11:38:36.933Z,52.80
2017-09-30T11:41:05.193Z,51.90
2017-09-30T11:43:33.438Z,54.50
2017-09-30T11:46:01.690Z,53.60
2017-09-30T11:48:30.737Z,51.90
2017-09-30T11:50:58.969Z,51.80
2017-09-30T11:53:27.210Z,53.20
2017-09-30T11:55:55.491Z,51.90
2017-09-30T11:58:23.733Z,53.70
2017-09-30T12:00:51.974Z,51.70
2017-09-30T12:03:21.422Z,51.40
2017-09-30T12:05:49.673Z,51.40
2017-09-30T12:08:17.913Z,52.60
2017-09-30T12:10:46.205Z,52.70
2017-09-30T12:13:14.441Z,52.40
2017-09-30T12:15:42.682Z,52.30
2017-09-30T12:18:10.964Z,53.20
2017-09-30T12:20:39.210Z,53.70
2017-09-30T12:23:07.450Z,52.30
2017-09-30T12:25:36.488Z,54.90
2017-09-30T12:28:04.734Z,54.80
2017-09-30T12:30:32.977Z,52.20
2017-09-30T12:33:01.377Z,53.10
2017-09-30T12:35:29.613Z,51.20
2017-09-30T12:37:57.853Z,51.40
2017-09-30T12:40:26.125Z,50.60
2017-09-30T12:42:54.365Z,51.50
2017-09-30T12:45:22.614Z,53.20
2017-09-30T12:47:51.661Z,53.30
2017-09-30T12:50:19.904Z,53.20
2017-09-30T12:52:48.149Z,52.60
2017-09-30T12:55:16.421Z,51.80
2017-09-30T12:57:44.665Z,50.70
2017-09-30T13:00:12.909Z,54.00
2017-09-30T13:02:41.201Z,51.00
2017-09-30T13:05:09.557Z,48.80
2017-09-30T13:07:37.798Z,51.10
2017-09-30T13:10:06.093Z,49.90
2017-09-30T13:12:34.337Z,50.20
2017-09-30T13:15:02.585Z,50.40
2017-09-30T13:17:30.857Z,48.50
2017-09-30T13:19:59.100Z,48.00
2017-09-30T13:22:27.338Z,47.90
2017-09-30T13:24:56.365Z,51.50
2017-09-30T13:27:24.605Z,51.40
2017-09-30T13:29:52.841Z,47.20
2017-09-30T13:32:21.897Z,47.50
2017-09-30T13:34:50.137Z,47.40
2017-09-30T13:37:18.382Z,47.50
2017-09-30T13:39:46.657Z,48.30
2017-09-30T13:42:14.902Z,47.40
2017-09-30T13:44:43.129Z,47.60
2017-09-30T13:47:12.166Z,47.70
2017-09-30T13:49:40.408Z,47.70
2017-09-30T13:52:08.649Z,47.00
2017-09-30T13:54:37.068Z,47.40
2017-09-30T13:57:05.310Z,45.70
2017-09-30T13:59:33.557Z,44.30
2017-09-30T14:02:01.826Z,45.30
2017-09-30T14:04:30.067Z,45.40
2017-09-30T14:06:58.300Z,43.20
2017-09-30T14:09:27.358Z,45.10
2017-09-30T14:11:55.608Z,45.80
2017-09-30T14:14:23.849Z,46.20
2017-09-30T14:16:52.149Z,45.30
2017-09-30T14:19:21.165Z,43.90
2017-09-30T14:21:49.406Z,43.90
2017-09-30T14:24:18.437Z,44.00
2017-09-30T14:26:46.677Z,44.00
2017-09-30T14:29:14.913Z,44.20
2017-09-30T14:31:43.192Z,44.60
2017-09-30T14:34:11.434Z,43.40
2017-09-30T14:36:39.665Z,44.70
2017-09-30T14:39:08.701Z,44.10
2017-09-30T14:41:36.939Z,44.10
2017-09-30T14:44:05.166Z,42.00
2017-09-30T14:46:34.212Z,42.80
2017-09-30T14:49:02.442Z,42.00
2017-09-30T14:51:30.745Z,43.70
2017-09-30T14:53:59.021Z,41.20
2017-09-30T14:56:27.253Z,40.80
2017-09-30T14:58:55.495Z,41.10
2017-09-30T15:01:23.774Z,40.30
2017-09-30T15:03:52.008Z,40.20
2017-09-30T15:06:20.261Z,40.30
2017-09-30T15:08:48.553Z,40.20
2017-09-30T15:11:16.789Z,40.10
2017-09-30T15:13:45.020Z,40.10
2017-09-30T15:16:14.049Z,40.90
2017-09-30T15:18:42.285Z,40.90
2017-09-30T15:21:10.525Z,40.30
2017-09-30T15:23:39.573Z,43.10
2017-09-30T15:26:07.814Z,43.00
2017-09-30T15:28:36.049Z,42.80
2017-09-30T15:31:04.309Z,45.00
2017-09-30T15:33:32.549Z,44.50
2017-09-30T15:36:01.555Z,45.40
2017-09-30T15:38:29.834Z,45.40
2017-09-30T15:40:58.072Z,45.30
2017-09-30T15:43:26.313Z,46.50
2017-09-30T15:45:54.581Z,47.10
2017-09-30T15:48:22.826Z,46.10
2017-09-30T15:50:51.835Z,47.20
2017-09-30T15:53:20.225Z,47.00
2017-09-30T15:55:48.460Z,47.80
2017-09-30T15:58:16.706Z,48.60
2017-09-30T16:00:44.981Z,48.80
2017-09-30T16:03:13.227Z,48.80
2017-09-30T16:05:41.470Z,49.50
2017-09-30T16:08:10.529Z,51.50
2017-09-30T16:10:38.778Z,51.60
2017-09-30T16:13:07.013Z,52.40
2017-09-30T16:15:35.302Z,52.50
2017-09-30T16:18:03.545Z,53.20
2017-09-30T16:20:31.781Z,53.90
2017-09-30T16:23:00.066Z,54.00
2017-09-30T16:25:28.305Z,53.90
2017-09-30T16:27:56.557Z,54.50
2017-09-30T16:30:24.833Z,55.10
2017-09-30T16:32:53.074Z,55.50
2017-09-30T16:35:21.318Z,55.80
2017-09-30T16:37:50.365Z,56.10
2017-09-30T16:40:18.609Z,56.10
2017-09-30T16:42:46.841Z,56.60
2017-09-30T16:45:15.122Z,57.10
2017-09-30T16:47:43.361Z,57.60
2017-09-30T16:50:11.601Z,57.90
2017-09-30T16:52:40.654Z,59.30
2017-09-30T16:55:08.889Z,59.20
2017-09-30T16:57:37.130Z,59.90
2017-09-30T17:00:05.421Z,59.40
2017-09-30T17:02:33.704Z,61.50
2017-09-30T17:05:02.513Z,60.30
2017-09-30T17:07:30.781Z,61.50
2017-09-30T17:09:59.055Z,61.40
2017-09-30T17:12:27.277Z,61.60
2017-09-30T17:14:56.317Z,63.40
2017-09-30T17:17:24.553Z,63.40
2017-09-30T17:19:52.813Z,64.20
2017-09-30T17:22:21.123Z,64.60
2017-09-30T17:24:49.381Z,65.00
2017-09-30T17:27:17.623Z,65.50
2017-09-30T17:29:45.906Z,65.70
2017-09-30T17:32:14.144Z,65.70
2017-09-30T17:34:42.377Z,66.80
2017-09-30T17:37:10.761Z,67.20
2017-09-30T17:39:39.003Z,67.00
2017-09-30T17:42:07.248Z,67.20
2017-09-30T17:44:35.513Z,67.00
2017-09-30T17:47:03.758Z,67.40
2017-09-30T17:49:32.757Z,69.10
2017-09-30T17:52:01.020Z,69.00
2017-09-30T17:54:29.270Z,69.10
2017-09-30T17:56:57.521Z,69.00
2017-09-30T17:59:25.822Z,69.10
2017-09-30T18:01:54.106Z,69.40
2017-09-30T18:04:22.417Z,70.00
2017-09-30T18:06:51.457Z,68.70
2017-09-30T18:09:19.697Z,68.60
2017-09-30T18:11:47.949Z,69.40
2017-09-30T18:14:16.204Z,68.10
2017-09-30T18:16:44.445Z,68.60
2017-09-30T18:19:12.674Z,69.80
2017-09-30T18:21:41.717Z,70.00
2017-09-30T18:24:11.690Z,71.00
2017-09-30T18:26:39.930Z,71.00
2017-09-30T18:29:08.213Z,70.30
2017-09-30T18:31:36.447Z,70.20
2017-09-30T18:34:05.448Z,69.80
2017-09-30T18:36:33.732Z,69.80
2017-09-30T18:39:01.972Z,68.50
2017-09-30T18:41:30.213Z,69.20
2017-09-30T18:43:58.496Z,68.50
2017-09-30T18:46:26.736Z,69.00
2017-09-30T18:48:54.981Z,68.40
2017-09-30T18:51:24.042Z,69.00
2017-09-30T18:53:52.293Z,68.80
2017-09-30T18:56:20.533Z,68.40
2017-09-30T18:58:49.009Z,70.20
2017-09-30T19:01:17.241Z,70.20
2017-09-30T19:03:45.480Z,70.20
2017-09-30T19:06:13.890Z,68.50
2017-09-30T19:08:42.130Z,68.00
2017-09-30T19:11:10.374Z,69.50
2017-09-30T19:13:38.697Z,69.50
2017-09-30T19:16:07.251Z,68.80
2017-09-30T19:18:35.481Z,69.20
2017-09-30T19:21:03.966Z,67.30
2017-09-30T19:23:32.202Z,66.50
2017-09-30T19:26:00.441Z,67.30
2017-09-30T19:28:28.722Z,67.80
2017-09-30T19:30:56.957Z,67.80
2017-09-30T19:33:25.958Z,71.00
2017-09-30T19:35:54.280Z,70.90
2017-09-30T19:38:22.513Z,72.20
2017-09-30T19:40:50.803Z,74.00
2017-09-30T19:43:19.090Z,74.80
2017-09-30T19:45:47.321Z,76.00
2017-09-30T19:48:15.559Z,76.40
2017-09-30T19:50:43.953Z,76.40
2017-09-30T19:53:12.185Z,78.20
2017-09-30T19:55:40.430Z,77.30
2017-09-30T19:58:08.901Z,77.50
2017-09-30T20:00:37.138Z,78.80
2017-09-30T20:03:05.368Z,80.20
2017-09-30T20:05:34.618Z,82.50
2017-09-30T20:08:02.857Z,82.50
2017-09-30T20:10:31.090Z,83.50
2017-09-30T20:12:59.492Z,86.00
2017-09-30T20:15:27.757Z,87.40
2017-09-30T20:17:55.990Z,89.90
2017-09-30T20:20:24.265Z,90.10
2017-09-30T20:22:52.502Z,90.10
2017-09-30T20:25:20.768Z,89.40
2017-09-30T20:27:49.121Z,89.50
2017-09-30T20:30:17.358Z,89.90
2017-09-30T20:32:46.361Z,89.40
2017-09-30T20:35:15.071Z,89.40
2017-09-30T20:37:43.319Z,89.10
2017-09-30T20:40:11.549Z,89.00
2017-09-30T20:42:39.817Z,89.20
2017-09-30T20:45:08.069Z,89.80
2017-09-30T20:47:37.057Z,90.10
2017-09-30T20:50:05.325Z,90.10
2017-09-30T20:52:33.558Z,90.00
2017-09-30T20:55:02.565Z,89.70
2017-09-30T20:57:30.849Z,89.60
2017-09-30T20:59:59.090Z,89.70
2017-09-30T21:02:27.329Z,90.20
2017-09-30T21:04:55.610Z,90.00
2017-09-30T21:07:23.895Z,90.20
2017-09-30T21:09:52.145Z,89.70
2017-09-30T21:12:20.405Z,89.30
2017-09-30T21:14:48.650Z,89.90
2017-09-30T21:17:16.896Z,89.80
2017-09-30T21:19:45.181Z,90.00
2017-09-30T21:22:13.418Z,90.60
2017-09-30T21:24:41.717Z,90.40
2017-09-30T21:27:09.972Z,90.30
2017-09-30T21:29:38.205Z,89.80
2017-09-30T21:32:06.457Z,90.20
2017-09-30T21:34:35.481Z,89.80
2017-09-30T21:37:03.719Z,89.70
2017-09-30T21:39:31.953Z,89.30
2017-09-30T21:42:00.220Z,88.50
2017-09-30T21:44:28.456Z,90.10
2017-09-30T21:46:57.453Z,90.10
2017-09-30T21:49:25.866Z,90.00
2017-09-30T21:51:54.097Z,90.40
2017-09-30T21:54:22.325Z,90.60
2017-09-30T21:56:51.368Z,90.30
2017-09-30T21:59:19.598Z,90.20
2017-09-30T22:01:47.846Z,90.10
2017-09-30T22:04:16.114Z,88.90
2017-09-30T22:06:44.354Z,88.80
2017-09-30T22:09:13.360Z,89.60
2017-09-30T22:11:41.621Z,89.50
2017-09-30T22:14:09.852Z,89.70
2017-09-30T22:16:38.851Z,90.50
2017-09-30T22:19:07.162Z,90.50
2017-09-30T22:21:35.397Z,90.10
2017-09-30T22:24:03.629Z,89.70
2017-09-30T22:26:31.917Z,90.30
2017-09-30T22:29:00.154Z,90.40
2017-09-30T22:31:28.398Z,90.40
2017-09-30T22:33:56.665Z,90.30
2017-09-30T22:36:24.918Z,90.40
2017-09-30T22:38:53.903Z,90.30
2017-09-30T22:41:22.193Z,90.20
2017-09-30T22:43:50.423Z,88.20
2017-09-30T22:46:18.662Z,89.40
2017-09-30T22:48:47.097Z,89.80
2017-09-30T22:51:15.330Z,89.10
2017-09-30T22:53:43.564Z,89.50
2017-09-30T22:56:12.909Z,90.10
2017-09-30T22:58:41.153Z,90.10
2017-09-30T23:01:09.390Z,90.10
2017-09-30T23:03:37.656Z,90.40
2017-09-30T23:06:05.893Z,90.30
2017-09-30T23:08:34.129Z,90.10
2017-09-30T23:11:02.390Z,90.30
2017-09-30T23:13:30.630Z,90.00
2017-09-30T23:15:58.861Z,89.50
2017-09-30T23:18:27.126Z,88.90
2017-09-30T23:20:55.382Z,89.30
2017-09-30T23:23:23.673Z,89.10
2017-09-30T23:25:51.926Z,90.20
2017-09-30T23:28:20.205Z,89.70
2017-09-30T23:30:48.446Z,88.70
2017-09-30T23:33:16.709Z,89.60
2017-09-30T23:35:44.937Z,89.40
2017-09-30T23:38:13.185Z,88.70
2017-09-30T23:40:42.201Z,90.00
2017-09-30T23:43:10.439Z,89.90
2017-09-30T23:45:38.681Z,90.20
2017-09-30T23:48:07.730Z,90.50
2017-09-30T23:50:35.970Z,90.50
2017-09-30T23:53:04.197Z,90.30
2017-09-30T23:55:32.493Z,90.80
2017-09-30T23:58:00.738Z,90.80
